Time;durP1;ratioP1;P1;durP2;ratioP2;P2;SDS_P1;SDS_P2;PMS_P1;PMS_P2;Temp;Humidity;BMP_temperature;BMP_pressure;BME280_temperature;BME280_humidity;BME280_pressure;Samples;Min_cycle;Max_cycle;Signal;HPM_P1;HPM_P2
2023/11/16 00:00:35;;;;;;;10.25;4.57;;;12.00;99.90;;;12.31;92.95;101441.38;4806902;29;20054;-63
2023/11/16 00:03:05;;;;;;;13.10;4.15;;;12.10;99.90;;;12.38;92.74;101442.25;4806739;29;20065;-63
2023/11/16 00:05:35;;;;;;;16.20;4.15;;;12.10;99.90;;;12.18;92.67;101434.34;4806824;29;20078;-64
2023/11/16 00:08:06;;;;;;;11.37;4.30;;;12.10;99.90;;;12.21;92.44;101437.00;4806232;29;20115;-63
2023/11/16 00:10:35;;;;;;;12.15;4.00;;;12.10;99.90;;;12.16;91.87;101436.09;4806514;29;20303;-63
2023/11/16 00:13:05;;;;;;;13.57;4.65;;;12.00;99.90;;;12.24;92.00;101444.03;4806641;29;20409;-63
2023/11/16 00:15:35;;;;;;;9.80;4.20;;;12.00;99.90;;;12.32;91.76;101437.84;4806436;29;20054;-63
2023/11/16 00:18:05;;;;;;;10.85;4.18;;;12.10;99.90;;;12.34;92.28;101430.75;4806358;29;20055;-64
2023/11/16 00:20:35;;;;;;;16.33;5.00;;;12.10;99.90;;;12.12;93.89;101441.41;4806921;29;20058;-64
2023/11/16 00:23:04;;;;;;;13.60;4.75;;;12.00;99.90;;;12.33;93.47;101442.25;4806556;29;20054;-63
2023/11/16 00:25:33;;;;;;;14.93;4.85;;;12.10;99.90;;;12.28;94.09;101445.81;4806492;29;20077;-64
2023/11/16 00:28:01;;;;;;;10.82;4.85;;;12.10;99.90;;;12.32;94.25;101448.47;4806492;29;20139;-63
2023/11/16 00:30:31;;;;;;;8.18;3.58;;;12.10;99.90;;;12.22;95.82;101446.69;4806393;29;20051;-63
2023/11/16 00:32:59;;;;;;;12.50;4.13;;;12.00;99.90;;;12.14;96.18;101448.47;4806440;29;20107;-63
2023/11/16 00:35:29;;;;;;;12.38;4.40;;;11.90;99.90;;;12.14;96.63;101443.19;4806285;29;20149;-64
2023/11/16 00:38:00;;;;;;;16.83;4.25;;;11.90;99.90;;;12.27;96.33;101452.88;4806312;29;20058;-63
2023/11/16 00:40:32;;;;;;;;;;;12.00;99.90;;;12.28;96.14;101451.09;4806710;29;20043;-63
2023/11/16 00:43:00;;;;;;;12.80;4.80;;;12.00;99.90;;;12.39;96.04;101459.91;4806312;29;19932;-63
2023/11/16 00:45:29;;;;;;;20.02;5.13;;;12.10;99.90;;;12.35;96.09;101452.88;4806197;29;20058;-63
2023/11/16 00:47:59;;;;;;;16.08;5.10;;;12.10;99.90;;;12.38;96.95;101452.84;4820166;29;20055;-63
2023/11/16 00:50:28;;;;;;;20.50;5.70;;;12.10;99.90;;;12.40;96.71;101456.38;4820164;29;20146;-63
2023/11/16 00:52:56;;;;;;;19.58;5.40;;;12.10;99.90;;;12.46;96.30;101456.38;4806044;29;20281;-63
2023/11/16 00:55:24;;;;;;;15.52;4.60;;;12.20;99.90;;;12.51;96.51;101454.59;4819959;29;20073;-64
2023/11/16 00:57:55;;;;;;;15.18;5.30;;;12.20;99.90;;;12.43;95.83;101420.13;4806086;29;20134;-63
2023/11/16 01:00:24;;;;;;;;;;;12.30;99.90;;;11.88;95.42;101311.56;4806437;29;20051;-63
2023/11/16 01:02:52;;;;;;;17.48;5.25;;;12.40;99.90;;;12.69;95.10;101449.22;4804160;29;20021;-63
2023/11/16 01:05:23;;;;;;;18.13;4.95;;;12.50;99.90;;;12.60;95.69;101436.00;4805962;29;20047;-64
2023/11/16 01:07:51;;;;;;;18.45;5.35;;;12.40;99.90;;;12.52;95.62;101436.00;4804760;29;20077;-64
2023/11/16 01:10:24;;;;;;;17.30;5.68;;;12.30;99.90;;;12.53;95.57;101432.47;4805871;29;20046;-64
2023/11/16 01:12:53;;;;;;;21.10;6.35;;;12.30;99.90;;;12.40;96.10;101440.47;4819992;29;20058;-63
2023/11/16 01:15:22;;;;;;;30.05;6.53;;;12.20;99.90;;;12.38;96.13;101437.84;4805582;29;20059;-64
2023/11/16 01:17:52;;;;;;;21.35;5.50;;;12.20;99.90;;;12.10;98.54;101441.41;4819833;29;20058;-64
2023/11/16 01:20:25;;;;;;;14.75;4.75;;;12.00;99.90;;;12.05;100.00;101443.19;4820253;29;20099;-64
2023/11/16 01:23:09;;;;;;;16.27;4.60;;;11.80;99.90;;;12.01;99.97;101412.25;4808418;29;20154;-64
2023/11/16 01:25:40;;;;;;;9.18;4.50;;;11.90;99.90;;;12.20;100.00;101435.22;4809557;29;20047;-63
2023/11/16 01:28:10;;;;;;;15.85;4.72;;;12.00;99.90;;;12.51;99.40;101441.31;4809534;29;20099;-62
2023/11/16 01:30:39;;;;;;;12.02;4.72;;;12.20;99.90;;;12.56;98.32;101434.25;4809228;29;20069;-63
2023/11/16 01:33:08;;;;;;;10.30;4.40;;;12.30;99.90;;;12.59;98.10;101445.72;4809157;29;20509;-64
2023/11/16 01:35:39;;;;;;;15.55;4.15;;;12.30;99.90;;;12.47;98.70;101434.25;4823236;29;20058;-63
2023/11/16 01:38:08;;;;;;;15.98;4.45;;;12.20;99.90;;;12.79;97.78;101443.00;4809325;29;20051;-64
2023/11/16 01:40:39;;;;;;;8.20;4.05;;;12.50;99.90;;;12.92;96.91;101446.47;4809272;29;20058;-63
2023/11/16 01:43:08;;;;;;;8.73;4.35;;;12.60;99.90;;;12.90;96.39;101432.31;4809311;29;20103;-63
2023/11/16 01:45:36;;;;;;;13.40;4.20;;;12.70;99.90;;;12.77;96.92;101450.09;4809217;29;20046;-63
2023/11/16 01:48:07;;;;;;;10.35;4.03;;;12.50;99.90;;;12.70;97.26;101445.66;4809369;29;20058;-63
2023/11/16 01:50:40;;;;;;;11.20;4.00;;;12.50;99.90;;;12.87;96.59;101443.84;4809177;29;20043;-63
2023/11/16 01:53:10;;;;;;;7.82;3.95;;;12.60;99.90;;;12.81;96.94;101448.28;4809166;29;20146;-63
2023/11/16 01:55:42;;;;;;;9.95;3.95;;;12.50;99.90;;;12.52;97.79;101435.13;4822883;29;20063;-63
2023/11/16 01:58:11;;;;;;;9.00;4.30;;;12.40;99.90;;;12.29;97.91;101432.53;4807515;29;20512;-63
2023/11/16 02:00:42;;;;;;;7.65;4.10;;;12.30;99.90;;;12.67;98.71;101451.00;4822757;29;20047;-63
2023/11/16 02:03:12;;;;;;;6.97;3.80;;;12.40;99.90;;;12.85;97.63;101450.94;4809123;29;20401;-63
2023/11/16 02:05:42;;;;;;;10.93;4.32;;;12.50;99.90;;;12.92;96.72;101459.75;4808909;29;20054;-63
2023/11/16 02:08:11;;;;;;;8.05;3.20;;;12.60;99.90;;;13.00;95.88;101465.91;4808598;29;20448;-63
2023/11/16 02:10:41;;;;;;;9.55;3.70;;;12.70;99.90;;;12.94;96.14;101457.97;4822464;29;20065;-63
2023/11/16 02:13:18;;;;;;;5.53;3.25;;;12.70;99.90;;;13.07;95.41;101463.25;4822529;29;20046;-63
2023/11/16 02:15:46;;;;;;;9.65;3.38;;;12.80;99.90;;;13.02;94.92;101462.34;4823063;29;20090;-63
2023/11/16 02:18:16;;;;;;;6.75;3.55;;;12.70;99.90;;;13.07;95.28;101455.28;4808613;29;20130;-63
2023/11/16 02:20:46;;;;;;;7.60;3.30;;;12.80;99.90;;;13.04;94.82;101443.78;4808950;29;20444;-63
2023/11/16 02:23:17;;;;;;;9.02;3.50;;;12.80;99.90;;;13.16;94.81;101452.56;4822107;29;20051;-63
2023/11/16 02:25:49;;;;;;;10.77;3.60;;;12.90;99.90;;;13.16;94.86;101449.91;4808571;29;20079;-64
2023/11/16 02:28:19;;;;;;;9.48;3.55;;;12.80;99.90;;;13.15;94.92;101453.47;4808558;29;20493;-64
2023/11/16 02:30:48;;;;;;;8.10;3.33;;;12.80;99.90;;;13.25;94.76;101444.56;4808453;29;20046;-63
2023/11/16 02:33:17;;;;;;;6.50;3.38;;;12.90;99.90;;;13.31;94.32;101441.88;4808159;29;20353;-64
2023/11/16 02:35:45;;;;;;;8.27;3.63;;;13.00;99.90;;;12.66;95.03;101409.41;4808428;29;20054;-63
2023/11/16 02:38:16;;;;;;;11.23;3.33;;;12.70;99.90;;;12.92;95.71;101442.03;4808146;29;20046;-63
2023/11/16 02:40:45;;;;;;;11.40;4.22;;;12.60;99.90;;;12.93;96.13;101443.78;4808303;29;20058;-63
2023/11/16 02:43:14;;;;;;;13.30;4.05;;;12.60;99.90;;;13.00;96.21;101444.66;4821700;29;20049;-63
2023/11/16 02:45:43;;;;;;;4.30;2.85;;;12.70;99.90;;;13.06;96.21;101442.91;4808235;29;20142;-64
2023/11/16 02:48:13;;;;;;;7.00;3.38;;;12.70;99.90;;;12.95;96.17;101436.69;4808345;29;20054;-64
2023/11/16 02:50:42;;;;;;;9.68;3.20;;;12.60;99.90;;;13.02;96.50;101437.56;4808180;29;20133;-63
2023/11/16 02:53:11;;;;;;;6.97;3.33;;;12.60;99.90;;;13.12;96.57;101434.91;4808068;29;20053;-63
2023/11/16 02:55:41;;;;;;;9.50;3.53;;;12.70;99.90;;;13.12;96.31;101437.56;4808037;29;20439;-63
2023/11/16 02:58:09;;;;;;;5.10;2.88;;;12.70;99.90;;;13.08;96.41;101449.09;4807668;29;20463;-63
2023/11/16 03:00:37;;;;;;;7.32;3.10;;;12.70;99.90;;;13.11;96.21;101449.06;4807903;29;20123;-63
2023/11/16 03:03:06;;;;;;;9.93;3.90;;;12.70;99.90;;;13.10;96.11;101444.66;4821512;29;20059;-63
2023/11/16 03:05:34;;;;;;;7.20;3.38;;;12.70;99.90;;;13.07;96.20;101452.63;4807849;29;20050;-64
2023/11/16 03:08:03;;;;;;;8.95;3.47;;;12.70;99.90;;;13.09;96.32;101429.59;4808038;29;20444;-63
2023/11/16 03:10:32;;;;;;;6.97;3.20;;;12.70;99.90;;;13.20;95.82;101437.50;4808232;29;20107;-63
2023/11/16 03:13:03;;;;;;;9.63;3.63;;;12.80;99.90;;;13.26;95.70;101435.69;4807464;29;20046;-63
2023/11/16 03:15:33;;;;;;;6.63;3.20;;;12.90;99.90;;;13.28;95.07;101436.56;4807545;29;20058;-63
2023/11/16 03:18:02;;;;;;;11.60;4.22;;;12.90;99.90;;;13.36;94.97;101431.19;4821484;29;20055;-63
2023/11/16 03:20:31;;;;;;;7.85;3.45;;;12.90;99.90;;;13.34;94.70;101436.50;4807611;29;20494;-63
2023/11/16 03:23:01;;;;;;;6.28;3.40;;;12.90;99.90;;;13.28;94.31;101435.66;4821389;29;20103;-64
2023/11/16 03:25:32;;;;;;;8.38;3.55;;;12.90;99.90;;;13.27;94.23;101424.19;4807523;29;20055;-63
2023/11/16 03:28:03;;;;;;;9.25;3.60;;;12.90;99.90;;;13.32;94.04;101426.78;4807512;29;20077;-63
2023/11/16 03:30:33;;;;;;;9.48;3.45;;;12.90;99.90;;;13.36;93.54;101417.91;4807550;29;20065;-64
2023/11/16 03:33:01;;;;;;;6.30;3.45;;;13.00;99.90;;;13.34;93.35;101417.91;4807455;29;20059;-64
2023/11/16 03:35:30;;;;;;;8.45;3.45;;;13.00;99.90;;;13.36;93.21;101416.13;4807327;29;20039;-63
2023/11/16 03:37:58;;;;;;;9.02;3.25;;;13.00;99.90;;;13.31;93.41;101436.56;4807415;29;20482;-64
2023/11/16 03:40:27;;;;;;;9.63;4.22;;;12.90;99.90;;;13.37;93.41;101403.72;4806033;29;20115;-64
2023/11/16 03:42:56;;;;;;;13.77;4.10;;;13.00;99.90;;;13.30;93.17;101413.50;4807214;29;20057;-63
2023/11/16 03:45:25;;;;;;;3.90;3.10;;;12.90;99.90;;;13.18;93.52;101384.38;4806748;29;20582;-63
2023/11/16 03:47:54;;;;;;;8.47;3.73;;;12.90;99.90;;;13.20;93.68;101411.81;4807185;29;20054;-64
2023/11/16 03:50:22;;;;;;;11.40;3.33;;;12.90;99.90;;;13.10;94.78;101410.13;4807155;29;20096;-63
2023/11/16 03:52:51;;;;;;;7.60;3.38;;;12.80;99.90;;;13.11;95.17;101414.53;4821037;29;20073;-63
2023/11/16 03:55:19;;;;;;;5.35;3.17;;;12.70;99.90;;;13.07;95.13;101409.22;4806961;29;20134;-64
2023/11/16 03:57:47;;;;;;;7.25;3.35;;;12.70;99.90;;;13.09;95.37;101400.38;4806910;29;20078;-63
2023/11/16 04:00:17;;;;;;;6.80;3.28;;;12.70;99.90;;;13.16;95.25;101412.72;4820888;29;20149;-63
2023/11/16 04:02:49;;;;;;;9.32;3.65;;;12.70;99.90;;;13.21;94.75;101407.38;4806699;29;20524;-63
2023/11/16 04:05:18;;;;;;;6.75;3.20;;;12.80;99.90;;;13.13;94.57;101399.47;4820880;29;20089;-63
2023/11/16 04:07:46;;;;;;;9.50;3.70;;;12.80;99.90;;;13.03;94.15;101387.13;4820580;29;20386;-63
2023/11/16 04:10:15;;;;;;;11.02;3.60;;;12.70;99.90;;;13.11;94.65;101400.34;4806783;29;20088;-64
2023/11/16 04:12:43;;;;;;;11.35;4.35;;;12.70;99.90;;;13.21;94.20;101407.38;4820849;29;20066;-63
2023/11/16 04:15:13;;;;;;;6.57;3.40;;;12.80;99.90;;;13.17;94.41;101401.22;4806705;29;20051;-63
2023/11/16 04:17:44;;;;;;;8.65;3.53;;;12.80;99.90;;;13.04;94.05;101383.59;4805373;29;20146;-63
2023/11/16 04:20:15;;;;;;;7.72;3.50;;;12.80;99.90;;;12.97;93.53;101357.06;4805396;29;20450;-63
2023/11/16 04:22:44;;;;;;;7.28;3.60;;;12.80;99.90;;;13.18;93.37;101400.31;4805483;29;20078;-63
2023/11/16 04:25:19;;;;;;;6.90;3.45;;;12.80;99.90;;;13.09;93.55;101383.53;4806514;29;20046;-63
2023/11/16 04:27:49;;;;;;;7.78;3.70;;;12.70;99.90;;;13.00;93.45;101391.53;4820669;29;20149;-63
2023/11/16 04:30:19;;;;;;;5.70;3.40;;;12.60;99.90;;;12.77;93.90;101372.22;4820453;29;20047;-63
2023/11/16 04:32:49;;;;;;;7.40;3.67;;;12.50;99.90;;;12.87;94.03;101392.50;4806512;29;20043;-63
2023/11/16 04:35:21;;;;;;;13.13;4.03;;;12.50;99.90;;;12.96;93.66;101403.97;4806426;29;20076;-63
2023/11/16 04:37:49;;;;;;;13.15;3.75;;;12.60;99.90;;;13.00;93.40;101397.75;4806031;29;20110;-63
2023/11/16 04:40:19;;;;;;;8.82;3.22;;;12.60;99.90;;;12.91;92.91;101371.22;4806022;29;20103;-64
2023/11/16 04:42:48;;;;;;;7.15;3.38;;;12.70;99.90;;;13.06;92.62;101392.44;4806148;29;20058;-63
2023/11/16 04:45:18;;;;;;;9.57;3.78;;;12.70;99.90;;;12.97;92.22;101360.56;4806427;29;20129;-64
2023/11/16 04:47:47;;;;;;;9.10;3.20;;;12.70;99.90;;;13.08;91.69;101369.41;4805969;29;20493;-63
2023/11/16 04:50:22;;;;;;;10.10;3.78;;;12.70;99.90;;;13.07;91.76;101364.06;4805868;29;20508;-63
2023/11/16 04:52:50;;;;;;;6.45;3.28;;;12.70;99.90;;;12.97;91.65;101371.19;4806134;29;20112;-63
2023/11/16 04:55:19;;;;;;;7.25;3.58;;;12.60;99.90;;;12.93;91.75;101379.22;4805804;29;20086;-64
2023/11/16 04:57:49;;;;;;;8.40;3.58;;;12.60;99.90;;;12.87;91.81;101364.19;4805713;29;20038;-63
2023/11/16 05:00:18;;;;;;;10.10;3.55;;;12.60;99.90;;;12.89;91.64;101370.34;4805775;29;20051;-63
2023/11/16 05:02:47;;;;;;;11.75;3.60;;;12.60;99.90;;;12.92;91.47;101374.78;4805829;29;20055;-63
2023/11/16 05:05:16;;;;;;;6.18;3.78;;;12.50;99.90;;;12.91;91.53;101383.66;4805955;29;20434;-63
2023/11/16 05:07:46;;;;;;;9.73;3.83;;;12.50;99.90;;;12.93;91.45;101373.91;4805972;29;20057;-63
2023/11/16 05:10:16;;;;;;;6.28;3.53;;;12.60;99.90;;;12.94;91.90;101379.19;4806002;29;20047;-63
2023/11/16 05:12:48;;;;;;;7.07;3.50;;;12.50;99.90;;;12.97;92.12;101380.97;4805752;29;20043;-63
2023/11/16 05:15:17;;;;;;;10.57;4.25;;;12.60;99.90;;;12.97;91.83;101383.63;4805689;29;20088;-64
2023/11/16 05:17:46;;;;;;;6.25;3.70;;;12.60;99.90;;;12.98;91.90;101382.69;4805564;29;20047;-64
2023/11/16 05:20:16;;;;;;;8.80;3.45;;;12.60;99.90;;;12.93;91.63;101377.41;4806066;29;20054;-63
2023/11/16 05:22:46;;;;;;;5.82;3.13;;;12.60;99.90;;;12.92;91.87;101378.31;4805936;29;20126;-63
2023/11/16 05:25:14;;;;;;;11.30;3.75;;;12.50;99.90;;;12.81;92.09;101364.22;4805551;29;20078;-64
2023/11/16 05:27:43;;;;;;;6.03;3.55;;;12.50;99.90;;;12.78;92.51;101368.66;4805639;29;20489;-64
2023/11/16 05:30:13;;;;;;;7.65;3.90;;;12.40;99.90;;;12.66;92.72;101369.59;4805731;29;20061;-63
2023/11/16 05:32:44;;;;;;;6.60;3.70;;;12.40;99.90;;;12.62;93.52;101376.69;4805458;29;20050;-63
2023/11/16 05:35:12;;;;;;;6.13;3.90;;;12.30;99.90;;;12.67;93.61;101371.38;4819767;29;20155;-64
2023/11/16 05:37:41;;;;;;;6.18;3.80;;;12.30;99.90;;;12.67;93.68;101380.22;4819736;29;20485;-63
2023/11/16 05:40:12;;;;;;;7.72;3.95;;;12.40;99.90;;;12.65;93.86;101371.38;4805436;29;20051;-63
2023/11/16 05:42:40;;;;;;;7.22;3.97;;;12.30;99.90;;;12.67;94.23;101361.66;4805344;29;20062;-63
2023/11/16 05:45:12;;;;;;;7.53;4.00;;;12.40;99.90;;;12.68;94.10;101362.50;4805551;29;20050;-64
2023/11/16 05:47:41;;;;;;;8.80;3.90;;;12.40;99.90;;;12.76;94.12;101358.03;4805498;29;20058;-63
2023/11/16 05:50:10;;;;;;;9.05;3.83;;;12.40;99.90;;;12.78;94.04;101348.31;4805274;29;20141;-63
2023/11/16 05:52:39;;;;;;;11.48;4.53;;;12.40;99.90;;;12.81;94.08;101350.97;4806070;29;20074;-63
2023/11/16 05:55:10;;;;;;;11.88;4.78;;;12.40;99.90;;;12.81;93.84;101347.41;4805548;29;20373;-63
2023/11/16 05:57:41;;;;;;;9.70;3.90;;;12.40;99.90;;;12.75;94.20;101339.47;4805359;29;20115;-63
2023/11/16 06:00:11;;;;;;;8.00;4.03;;;12.40;99.90;;;12.69;94.37;101333.31;4805225;29;20054;-64
2023/11/16 06:02:40;;;;;;;9.13;4.20;;;12.30;99.90;;;12.64;94.50;101331.56;4805623;29;20119;-63
2023/11/16 06:05:09;;;;;;;7.18;4.07;;;12.30;99.90;;;12.60;94.68;101324.53;4805719;29;20074;-63
2023/11/16 06:07:41;;;;;;;8.30;4.00;;;12.20;99.90;;;12.55;95.09;101329.84;4808074;29;20097;-64
2023/11/16 06:10:16;;;;;;;8.18;4.05;;;12.20;99.90;;;12.58;94.90;101323.66;4822464;29;20509;-63
2023/11/16 06:12:46;;;;;;;11.73;5.68;;;12.20;99.90;;;12.53;95.30;101314.81;4808836;29;20058;-63
2023/11/16 06:15:15;;;;;;;10.15;4.57;;;12.20;99.90;;;12.39;95.39;101316.66;4809045;29;20066;-63
2023/11/16 06:17:44;;;;;;;9.07;4.05;;;12.10;99.90;;;12.27;96.53;101317.59;4808438;29;20047;-64
2023/11/16 06:20:13;;;;;;;7.93;4.03;;;12.00;99.90;;;12.03;97.45;101315.03;4808577;29;20076;-63
2023/11/16 06:22:41;;;;;;;9.18;4.20;;;11.70;99.90;;;11.84;98.67;101307.16;4808588;29;20126;-63
2023/11/16 06:25:12;;;;;;;13.35;4.70;;;11.50;99.90;;;11.74;100.00;101301.00;4808528;29;20047;-63
2023/11/16 06:27:40;;;;;;;;;;;11.40;99.90;;;11.67;100.00;101301.91;4822657;29;20055;-63
2023/11/16 06:30:12;;;;;;;7.43;4.28;;;11.30;99.90;;;11.56;100.00;101295.69;4808515;29;19925;-64
2023/11/16 06:32:42;;;;;;;12.73;5.03;;;11.20;99.90;;;11.52;100.00;101299.22;4808160;29;20051;-63
2023/11/16 06:35:11;;;;;;;9.60;4.53;;;11.20;99.90;;;11.26;100.00;101301.91;4808402;29;20058;-64
2023/11/16 06:37:39;;;;;;;11.75;5.20;;;11.00;99.90;;;10.77;100.00;101242.78;4808067;29;20061;-63
2023/11/16 06:40:09;;;;;;;9.18;5.68;;;10.70;99.90;;;10.90;100.00;101286.88;4808205;29;20429;-63
2023/11/16 06:42:40;;;;;;;13.80;7.35;;;10.60;99.90;;;10.69;100.00;101281.56;4808531;29;20058;-63
2023/11/16 06:45:12;;;;;;;17.92;6.50;;;10.40;99.90;;;10.60;100.00;101283.31;4808025;29;20043;-63
2023/11/16 06:47:41;;;;;;;15.77;6.25;;;10.30;99.90;;;10.58;100.00;101279.78;4808165;29;20044;-64
2023/11/16 06:50:12;;;;;;;14.70;6.82;;;10.30;99.90;;;10.63;100.00;101284.19;4808152;29;20466;-63
2023/11/16 06:52:41;;;;;;;11.88;6.18;;;10.30;99.90;;;10.70;100.00;101285.09;4807859;29;20402;-63
2023/11/16 06:55:13;;;;;;;12.70;6.57;;;10.40;99.90;;;10.60;100.00;101278.03;4807734;29;20055;-64
2023/11/16 06:57:44;;;;;;;14.63;7.20;;;10.30;99.90;;;10.43;100.00;101274.47;4807792;29;20042;-63
2023/11/16 07:00:16;;;;;;;14.73;7.20;;;10.20;99.90;;;10.41;100.00;101271.81;4807769;29;20043;-63
2023/11/16 07:02:45;;;;;;;13.63;7.18;;;10.20;99.90;;;10.37;100.00;101271.81;4807525;29;20459;-63
2023/11/16 07:05:15;;;;;;;12.20;7.50;;;10.10;99.90;;;10.44;100.00;101261.25;4808085;29;20459;-63
2023/11/16 07:07:45;;;;;;;11.55;7.20;;;10.20;99.90;;;10.49;100.00;101261.25;4807884;29;20046;-63
2023/11/16 07:10:15;;;;;;;16.70;8.05;;;10.20;99.90;;;10.31;100.00;101230.38;4807374;29;20051;-63
2023/11/16 07:12:46;;;;;;;11.02;7.60;;;10.20;99.90;;;10.46;100.00;101267.41;4807516;29;20099;-63
2023/11/16 07:15:16;;;;;;;11.68;7.30;;;10.20;99.90;;;10.45;100.00;101262.13;4807630;29;20069;-63
2023/11/16 07:17:44;;;;;;;15.88;7.40;;;10.10;99.90;;;10.42;100.00;101259.47;4807061;29;20406;-63
2023/11/16 07:20:13;;;;;;;13.07;7.78;;;10.10;99.90;;;10.58;100.00;101250.69;4807202;29;20078;-64
2023/11/16 07:22:42;;;;;;;12.73;8.10;;;10.30;99.90;;;10.46;100.00;101253.31;4807214;29;20073;-63
2023/11/16 07:25:13;;;;;;;12.05;7.28;;;10.20;99.90;;;10.36;100.00;101262.09;4821293;29;20070;-63
2023/11/16 07:27:41;;;;;;;12.38;7.45;;;10.10;99.90;;;10.30;100.00;101262.97;4807412;29;20153;-63
2023/11/16 07:30:13;;;;;;;12.60;7.00;;;10.00;99.90;;;10.45;100.00;101252.41;4807320;29;20401;-63
2023/11/16 07:32:42;;;;;;;10.48;6.40;;;10.20;99.90;;;10.52;100.00;101258.59;4807039;29;20409;-63
2023/11/16 07:35:15;;;;;;;10.63;6.45;;;10.20;99.90;;;10.56;100.00;101255.09;4807252;29;20047;-61
2023/11/16 07:37:45;;;;;;;8.60;6.00;;;10.30;99.90;;;10.48;100.00;101251.53;4807298;29;20078;-63
2023/11/16 07:40:14;;;;;;;8.93;6.45;;;10.30;99.90;;;10.60;100.00;101256.88;4807282;29;20121;-62
2023/11/16 07:42:44;;;;;;;12.63;6.65;;;10.30;99.90;;;10.52;100.00;101263.91;4807507;29;20130;-62
2023/11/16 07:45:16;;;;;;;11.68;6.88;;;10.30;99.90;;;10.56;100.00;101265.66;4807107;29;20055;-61
2023/11/16 07:47:47;;;;;;;;;;;10.30;99.90;;;10.36;100.00;101248.88;4807701;29;20092;-60
2023/11/16 07:50:15;;;;;;;10.50;6.93;;;10.20;99.90;;;10.41;100.00;101250.66;4806825;29;19968;-63
2023/11/16 07:52:44;;;;;;;11.27;7.15;;;10.10;99.90;;;10.24;100.00;101203.91;4806772;29;20050;-63
2023/11/16 07:55:15;;;;;;;15.40;9.55;;;10.20;99.90;;;10.48;100.00;101236.56;4807182;29;20042;-63
2023/11/16 07:57:47;;;;;;;15.25;7.65;;;10.20;99.90;;;10.65;100.00;101233.94;4806990;29;20051;-62
2023/11/16 08:00:26;;;;;;;13.05;6.85;;;10.30;99.90;;;10.45;100.00;101230.41;4806873;29;20138;-63
2023/11/16 08:05:43;;;;;;;12.90;7.45;;;10.20;99.90;;;10.58;100.00;101208.38;4806887;29;20042;-62
2023/11/16 08:08:13;;;;;;;12.60;7.35;;;10.30;99.90;;;10.49;100.00;101200.44;4806528;29;20078;-62
2023/11/16 08:10:44;;;;;;;10.85;6.53;;;10.30;99.90;;;10.57;100.00;101201.28;4806494;29;20066;-62
2023/11/16 08:13:13;;;;;;;10.45;6.85;;;10.30;99.90;;;10.53;100.00;101199.56;4806544;29;20054;-62
2023/11/16 08:15:43;;;;;;;13.77;6.80;;;10.30;99.90;;;10.51;100.00;101202.19;4806275;29;20050;-62
2023/11/16 08:18:13;;;;;;;13.25;7.05;;;10.30;99.90;;;10.52;100.00;101201.31;4806611;29;20043;-62
2023/11/16 08:20:51;;;;;;;12.20;6.30;;;10.30;99.90;;;10.70;100.00;101211.03;4806356;29;20047;-62
2023/11/16 08:23:23;;;;;;;;;;;10.40;99.90;;;10.55;100.00;101197.81;4806713;29;20130;-62
2023/11/16 08:26:05;;;;;;;13.32;7.43;;;10.30;99.90;;;10.43;100.00;101206.56;4806278;29;20366;-62
2023/11/16 08:28:38;;;;;;;12.10;7.03;;;10.20;99.90;;;10.33;100.00;101201.28;4805055;29;20494;-61
2023/11/16 08:31:10;;;;;;;15.40;7.25;;;10.10;99.90;;;10.22;100.00;101201.25;4805807;29;20130;-64
2023/11/16 08:33:38;;;;;;;14.15;6.72;;;10.00;99.90;;;10.18;100.00;101210.03;4806055;29;20050;-64
2023/11/16 08:36:10;;;;;;;14.02;7.20;;;9.90;99.90;;;10.16;100.00;101211.81;4806202;29;20133;-65
2023/11/16 08:38:41;;;;;;;16.33;7.32;;;9.90;99.90;;;10.36;100.00;101204.81;4806065;29;20050;-64
2023/11/16 08:41:15;;;;;;;12.40;7.18;;;10.00;99.90;;;10.54;100.00;101202.19;4806090;29;20050;-62
2023/11/16 08:43:44;;;;;;;11.75;7.30;;;10.20;99.90;;;10.62;100.00;101207.50;4806009;29;20054;-60
2023/11/16 08:46:20;;;;;;;16.42;7.15;;;10.30;99.90;;;10.65;100.00;101200.44;4805820;29;20043;-60
2023/11/16 08:48:50;;;;;;;15.63;8.50;;;10.30;99.90;;;10.63;100.00;101199.56;4805871;29;20058;-60
2023/11/16 08:51:22;;;;;;;18.20;8.98;;;10.40;99.90;;;10.54;100.00;101194.25;4805824;29;20425;-60
2023/11/16 08:53:55;;;;;;;16.35;8.98;;;10.30;99.90;;;10.57;100.00;101204.84;4805867;29;20051;-61
2023/11/16 08:56:26;;;;;;;20.65;10.18;;;10.40;99.90;;;10.55;100.00;101203.94;4805794;29;20055;-61
2023/11/16 08:59:12;;;;;;;21.15;11.68;;;10.30;99.90;;;10.56;100.00;101205.72;4805784;29;20455;-60
2023/11/16 09:01:47;;;;;;;21.77;11.23;;;10.40;99.90;;;10.50;100.00;101192.50;4805385;29;20043;-60
2023/11/16 09:04:16;;;;;;;24.25;12.48;;;10.30;99.90;;;10.54;100.00;101196.03;4805761;29;20066;-61
2023/11/16 09:06:44;;;;;;;24.55;13.43;;;10.30;99.90;;;10.61;100.00;101197.78;4805911;29;20046;-62
2023/11/16 09:11:57;;;;;;;25.17;13.73;;;10.40;99.90;;;10.56;100.00;101199.53;4806224;29;20050;-62
2023/11/16 09:14:25;;;;;;;23.95;13.45;;;10.40;99.90;;;10.54;100.00;101202.19;4806164;29;20133;-63
2023/11/16 09:17:02;;;;;;;23.25;13.00;;;10.30;99.90;;;10.54;100.00;101207.50;4805816;29;20043;-62
2023/11/16 09:19:40;;;;;;;27.25;14.23;;;10.30;99.90;;;10.78;100.00;101214.56;4805530;29;20503;-63
2023/11/16 09:22:09;;;;;;;22.13;13.43;;;10.50;99.90;;;10.75;100.00;101209.25;4805721;29;20552;-63
2023/11/16 09:24:39;;;;;;;28.35;14.30;;;10.50;99.90;;;10.82;100.00;101211.00;4805829;29;20057;-62
2023/11/16 09:27:07;;;;;;;27.67;15.85;;;10.60;99.90;;;10.95;100.00;101227.78;4805777;29;20059;-62
2023/11/16 09:29:38;;;;;;;30.85;15.60;;;10.70;99.90;;;10.89;100.00;101208.38;4805725;29;20055;-63
2023/11/16 09:32:10;;;;;;;28.83;16.75;;;10.70;99.90;;;10.98;100.00;101202.19;4805538;29;20405;-62
2023/11/16 09:34:41;;;;;;;25.58;16.25;;;10.70;99.90;;;10.74;100.00;101199.56;4805804;29;20050;-61
2023/11/16 09:37:09;;;;;;;24.13;17.15;;;10.60;99.90;;;10.74;100.00;101186.34;4805444;29;20438;-61
2023/11/16 09:39:38;;;;;;;25.27;16.92;;;10.50;99.90;;;10.65;100.00;101192.50;4805929;29;20069;-61
2023/11/16 09:42:12;;;;;;;31.67;16.95;;;10.50;99.90;;;10.51;100.00;101183.66;4807217;29;20054;-63
2023/11/16 09:44:52;;;;;;;29.80;18.50;;;10.30;99.90;;;10.31;100.00;101190.72;4809291;29;20059;-61
2023/11/16 09:47:29;;;;;;;28.85;17.50;;;10.20;99.90;;;10.54;100.00;101193.38;4809500;29;20055;-62
2023/11/16 09:49:58;;;;;;;32.92;18.63;;;10.20;99.90;;;10.59;100.00;101196.88;4807890;29;20463;-63
2023/11/16 09:52:32;;;;;;;31.30;18.23;;;10.30;99.90;;;10.26;100.00;101191.59;4808785;29;20137;-63
2023/11/16 09:55:03;;;;;;;29.77;17.40;;;10.10;99.90;;;10.27;100.00;101195.97;4809395;29;20054;-64
2023/11/16 09:57:33;;;;;;;27.98;16.67;;;10.10;99.90;;;9.99;100.00;101198.50;4807834;29;20054;-63
2023/11/16 10:00:14;;;;;;;24.45;16.65;;;9.80;99.90;;;10.18;100.00;101188.03;4808918;29;20061;-65
2023/11/16 10:02:47;;;;;;;27.48;15.80;;;9.90;99.90;;;10.19;100.00;101190.69;4807073;29;20139;-64
2023/11/16 10:05:23;;;;;;;27.50;16.15;;;9.90;99.90;;;10.38;100.00;101192.47;4807694;29;20063;-65
2023/11/16 10:07:53;;;;;;;27.23;15.35;;;10.00;99.90;;;10.42;100.00;101182.78;4809132;29;20055;-62
2023/11/16 10:10:22;;;;;;;28.23;16.45;;;10.10;99.90;;;10.44;100.00;101175.72;4807549;29;20100;-63
2023/11/16 10:12:52;;;;;;;33.17;16.53;;;10.10;99.90;;;10.24;100.00;101157.19;4808549;29;20090;-62
2023/11/16 10:15:21;;;;;;;26.52;16.45;;;10.10;99.90;;;10.38;100.00;101166.03;4807472;29;20142;-61
2023/11/16 10:17:55;;;;;;;28.05;15.60;;;10.10;99.90;;;10.33;100.00;101173.09;4808367;29;20417;-62
2023/11/16 10:20:24;;;;;;;31.42;16.77;;;10.00;99.90;;;10.14;100.00;101167.75;4808661;29;20051;-63
2023/11/16 10:22:54;;;;;;;28.70;16.80;;;9.90;99.90;;;10.25;100.00;101147.50;4808197;29;20425;-63
2023/11/16 10:25:24;;;;;;;31.48;16.17;;;10.00;99.90;;;10.49;100.00;101163.41;4808715;29;20503;-63